< < Back
Terminal Aerodrome Forecast


Current Version              Previous Versions:   1  2  3  4  5  6  7  8  9  

Terminal Aerodrome Forecast

668
FTUS44 KBMX 270905 AAA
TAFMGM
TAF AMD
KMGM 270905Z 2709/2806 18004KT P6SM BKN009
     FM271400 19008KT P6SM SCT015 SCT030
     FM271800 19010KT P6SM VCTS SCT050CB=

Latest METAR

120
SAUS80 KWBC 280600 RRB
MTRMGM
METAR KMGM 280553Z AUTO 00000KT 10SM CLR 24/21 A3004 RMK AO2 SLP169
T02390211 10306 20239 403330239 51004


USA.gov is the U.S. government's official web portal to all federal, state and local government web resources and services.